createdAt,value
2022-08-03T00:02:49.439Z,19.28
2022-08-03T00:06:04.739Z,19.25
2022-08-03T00:09:08.270Z,19.23
2022-08-03T00:12:11.408Z,19.20
2022-08-03T00:15:16.630Z,19.19
2022-08-03T00:18:20.034Z,19.17
2022-08-03T00:21:23.004Z,19.14
2022-08-03T00:24:25.868Z,19.11
2022-08-03T00:27:28.790Z,19.11
2022-08-03T00:30:36.250Z,19.09
2022-08-03T00:33:57.981Z,19.08
2022-08-03T00:37:01.695Z,19.06
2022-08-03T00:40:05.536Z,19.03
2022-08-03T00:43:09.043Z,18.99
2022-08-03T00:46:12.060Z,18.96
2022-08-03T00:49:15.096Z,18.94
2022-08-03T00:52:18.026Z,18.92
2022-08-03T00:55:21.626Z,18.90
2022-08-03T00:58:24.537Z,18.88
2022-08-03T01:01:32.167Z,18.85
2022-08-03T01:04:35.619Z,18.84
2022-08-03T01:08:13.434Z,18.83
2022-08-03T01:11:32.277Z,18.82
2022-08-03T01:14:53.922Z,18.78
2022-08-03T01:18:08.057Z,18.77
2022-08-03T01:21:21.545Z,18.76
2022-08-03T01:25:02.996Z,18.75
2022-08-03T01:28:33.703Z,18.72
2022-08-03T01:32:59.422Z,18.70
2022-08-03T01:35:17.877Z,18.68
2022-08-03T01:38:27.160Z,18.66
2022-08-03T01:41:35.312Z,18.63
2022-08-03T01:44:41.708Z,18.61
2022-08-03T01:47:49.895Z,18.60
2022-08-03T01:50:56.811Z,18.59
2022-08-03T01:54:01.036Z,18.59
2022-08-03T01:57:05.018Z,18.57
2022-08-03T02:00:09.900Z,18.56
2022-08-03T02:03:19.779Z,18.54
2022-08-03T02:07:00.030Z,18.54
2022-08-03T02:09:51.046Z,18.52
2022-08-03T02:12:54.762Z,18.51
2022-08-03T02:15:58.847Z,18.50
2022-08-03T02:19:04.494Z,18.49
2022-08-03T02:22:11.736Z,18.46
2022-08-03T02:25:16.057Z,18.44
2022-08-03T02:28:21.348Z,18.41
2022-08-03T02:31:28.663Z,18.41
2022-08-03T02:34:35.081Z,18.39
2022-08-03T02:37:50.380Z,18.37
2022-08-03T02:40:56.594Z,18.35
2022-08-03T02:44:07.125Z,18.32
2022-08-03T02:47:11.877Z,18.30
2022-08-03T02:50:16.961Z,18.28
2022-08-03T02:53:21.391Z,18.26
2022-08-03T02:56:26.280Z,18.24
2022-08-03T02:59:31.360Z,18.22
2022-08-03T03:02:35.280Z,18.21
2022-08-03T03:05:54.836Z,18.21
2022-08-03T03:09:00.493Z,18.20
2022-08-03T03:12:04.603Z,18.19
2022-08-03T03:15:08.077Z,18.18
2022-08-03T03:18:11.984Z,18.16
2022-08-03T03:21:17.883Z,18.16
2022-08-03T03:24:21.518Z,18.15
2022-08-03T03:27:24.582Z,18.15
2022-08-03T03:30:28.295Z,18.15
2022-08-03T03:33:31.281Z,18.14
2022-08-03T03:36:34.219Z,18.15
2022-08-03T03:39:37.085Z,18.14
2022-08-03T03:42:40.529Z,18.15
2022-08-03T03:45:44.046Z,18.15
2022-08-03T03:48:47.158Z,18.15
2022-08-03T03:51:53.957Z,18.15
2022-08-03T03:55:00.834Z,18.15
2022-08-03T03:58:04.883Z,18.15
2022-08-03T04:01:08.833Z,18.15
2022-08-03T04:04:30.146Z,18.16
2022-08-03T04:08:03.280Z,18.18
2022-08-03T04:11:16.890Z,18.17
2022-08-03T04:14:40.463Z,18.18
2022-08-03T04:17:44.629Z,18.20
2022-08-03T04:20:50.115Z,18.20
2022-08-03T04:23:56.236Z,18.21
2022-08-03T04:27:02.906Z,18.21
2022-08-03T04:30:07.177Z,18.23
2022-08-03T04:33:10.574Z,18.24
2022-08-03T04:36:17.636Z,18.25
2022-08-03T04:39:26.537Z,18.26
2022-08-03T04:42:33.356Z,18.27
2022-08-03T04:45:37.331Z,18.29
2022-08-03T04:48:44.470Z,18.32
2022-08-03T04:51:50.029Z,18.33
2022-08-03T04:54:52.917Z,18.34
2022-08-03T04:57:56.987Z,18.35
2022-08-03T05:00:59.932Z,18.36
2022-08-03T05:04:03.273Z,18.37
2022-08-03T05:07:11.518Z,18.37
2022-08-03T05:10:16.648Z,18.39
2022-08-03T05:13:20.682Z,18.39
2022-08-03T05:16:25.890Z,18.41
2022-08-03T05:19:28.875Z,18.46
2022-08-03T05:22:31.779Z,18.52
2022-08-03T05:25:34.798Z,18.59
2022-08-03T05:28:38.383Z,18.61
2022-08-03T05:31:41.351Z,18.66
2022-08-03T05:34:44.507Z,18.77
2022-08-03T05:37:54.881Z,18.90
2022-08-03T05:41:22.132Z,19.06
2022-08-03T05:44:22.164Z,19.21
2022-08-03T05:47:24.982Z,19.26
2022-08-03T05:50:27.883Z,19.27
2022-08-03T05:53:34.291Z,19.30
2022-08-03T05:56:37.547Z,19.38
2022-08-03T05:59:40.514Z,19.50
2022-08-03T06:02:59.550Z,19.67
2022-08-03T06:06:02.537Z,19.83
2022-08-03T06:09:05.599Z,20.00
2022-08-03T06:12:13.720Z,20.15
2022-08-03T06:15:18.827Z,20.32
2022-08-03T06:18:22.009Z,20.46
2022-08-03T06:21:25.172Z,20.61
2022-08-03T06:24:30.359Z,20.76
2022-08-03T06:27:37.263Z,20.89
2022-08-03T06:30:41.565Z,21.02
2022-08-03T06:34:30.401Z,21.15
2022-08-03T06:37:07.666Z,21.27
2022-08-03T06:40:13.890Z,21.38
2022-08-03T06:43:17.158Z,21.51
2022-08-03T06:46:20.878Z,21.63
2022-08-03T06:49:24.103Z,21.77
2022-08-03T06:52:27.703Z,21.91
2022-08-03T06:55:42.309Z,22.07
2022-08-03T06:58:47.025Z,22.22
2022-08-03T07:01:50.204Z,22.37
2022-08-03T07:04:53.201Z,22.52
2022-08-03T07:07:57.823Z,22.69
2022-08-03T07:11:01.900Z,22.83
2022-08-03T07:14:05.232Z,22.98
2022-08-03T07:17:11.505Z,23.10
2022-08-03T07:20:15.361Z,23.26
2022-08-03T07:23:18.893Z,23.37
2022-08-03T07:26:22.384Z,23.47
2022-08-03T07:29:26.128Z,23.58
2022-08-03T07:32:31.691Z,23.69
2022-08-03T07:35:35.069Z,23.85
2022-08-03T07:38:38.024Z,24.02
2022-08-03T07:41:40.941Z,24.16
2022-08-03T07:44:44.814Z,24.30
2022-08-03T07:47:53.514Z,24.44
2022-08-03T07:50:56.871Z,24.59
2022-08-03T07:54:00.976Z,24.71
2022-08-03T07:57:04.170Z,24.85
2022-08-03T08:00:13.921Z,24.96
2022-08-03T08:03:16.996Z,25.04
2022-08-03T08:06:19.941Z,25.13
2022-08-03T08:09:23.594Z,25.29
2022-08-03T08:12:26.540Z,25.46
2022-08-03T08:15:30.221Z,25.60
2022-08-03T08:18:34.554Z,25.74
2022-08-03T08:21:53.050Z,25.89
2022-08-03T08:25:01.337Z,26.04
2022-08-03T08:28:22.308Z,26.17
2022-08-03T08:31:28.114Z,26.30
2022-08-03T08:34:31.134Z,26.40
2022-08-03T08:37:35.879Z,26.52
2022-08-03T08:40:39.224Z,26.62
2022-08-03T08:43:43.328Z,26.66
2022-08-03T08:46:48.085Z,26.64
2022-08-03T08:50:09.286Z,26.66
2022-08-03T08:53:15.580Z,26.77
2022-08-03T08:56:25.744Z,26.87
2022-08-03T08:59:49.290Z,26.99
2022-08-03T09:02:52.620Z,27.11
2022-08-03T09:05:56.495Z,27.19
2022-08-03T09:08:59.787Z,27.28
2022-08-03T09:12:28.131Z,27.36
2022-08-03T09:15:28.563Z,27.44
2022-08-03T09:18:32.891Z,27.50
2022-08-03T09:21:36.186Z,27.57
2022-08-03T09:25:21.725Z,27.66
2022-08-03T09:28:52.705Z,27.60
2022-08-03T09:31:46.738Z,27.49
2022-08-03T09:34:54.222Z,27.17
2022-08-03T09:38:18.210Z,26.80
2022-08-03T09:41:21.222Z,26.39
2022-08-03T09:44:35.428Z,26.18
2022-08-03T09:47:44.670Z,26.33
2022-08-03T09:51:13.281Z,26.21
2022-08-03T09:54:30.414Z,26.32
2022-08-03T09:57:33.624Z,26.51
2022-08-03T10:00:58.892Z,26.74
2022-08-03T10:04:03.276Z,27.00
2022-08-03T10:07:10.902Z,27.22
2022-08-03T10:10:31.080Z,27.46
2022-08-03T10:13:37.042Z,27.45
2022-08-03T10:16:40.638Z,27.58
2022-08-03T10:19:43.621Z,27.73
2022-08-03T10:22:47.876Z,27.89
2022-08-03T10:25:55.106Z,28.07
2022-08-03T10:29:00.975Z,28.14
2022-08-03T10:32:09.666Z,28.30
2022-08-03T10:35:20.429Z,28.47
2022-08-03T10:38:32.765Z,28.63
2022-08-03T10:41:42.660Z,28.80
2022-08-03T10:44:45.884Z,28.98
2022-08-03T10:47:50.090Z,29.15
2022-08-03T10:50:53.738Z,29.31
2022-08-03T10:53:56.726Z,29.40
2022-08-03T10:57:20.322Z,29.36
2022-08-03T11:00:25.538Z,29.27
2022-08-03T11:03:28.768Z,29.08
2022-08-03T11:06:37.536Z,28.95
2022-08-03T11:09:49.022Z,28.83
2022-08-03T11:13:09.310Z,28.60
2022-08-03T11:16:22.364Z,28.49
2022-08-03T11:19:57.002Z,28.64
2022-08-03T11:23:01.815Z,28.83
2022-08-03T11:26:12.146Z,29.00
2022-08-03T11:29:29.478Z,29.13
2022-08-03T11:32:38.543Z,29.21
2022-08-03T11:35:59.943Z,29.32
2022-08-03T11:39:17.254Z,29.45
2022-08-03T11:42:23.441Z,29.30
2022-08-03T11:45:26.631Z,29.03
2022-08-03T11:48:38.777Z,28.76
2022-08-03T11:51:42.158Z,28.61
2022-08-03T11:54:45.781Z,28.69
2022-08-03T11:59:03.379Z,28.84
2022-08-03T12:01:12.613Z,29.01
2022-08-03T12:04:16.446Z,29.13
2022-08-03T12:08:02.470Z,29.25
2022-08-03T12:10:49.897Z,29.37
2022-08-03T12:14:44.584Z,29.44
2022-08-03T12:17:16.572Z,29.57
2022-08-03T12:20:31.555Z,29.70
2022-08-03T12:23:39.812Z,29.80
2022-08-03T12:26:52.211Z,29.89
2022-08-03T12:30:04.422Z,29.95
2022-08-03T12:33:15.421Z,30.01
2022-08-03T12:36:20.090Z,30.05
2022-08-03T12:39:25.266Z,30.07
2022-08-03T12:42:35.480Z,30.09
2022-08-03T12:45:38.649Z,30.09
2022-08-03T12:49:00.535Z,30.08
2022-08-03T12:52:07.574Z,30.08
2022-08-03T12:55:20.561Z,30.03
2022-08-03T12:58:35.534Z,30.02
2022-08-03T13:01:38.710Z,30.03
2022-08-03T13:05:09.988Z,30.02
2022-08-03T13:08:23.657Z,29.99
2022-08-03T13:11:53.521Z,29.94
2022-08-03T13:15:01.097Z,29.92
2022-08-03T13:18:04.284Z,29.85
2022-08-03T13:21:07.221Z,29.80
2022-08-03T13:24:10.181Z,29.75
2022-08-03T13:28:13.823Z,29.75
2022-08-03T13:30:37.102Z,29.74
2022-08-03T13:33:40.985Z,29.70
2022-08-03T13:37:07.908Z,29.69
2022-08-03T13:40:08.625Z,29.68
2022-08-03T13:43:14.707Z,29.67
2022-08-03T13:46:17.992Z,29.65
2022-08-03T13:49:21.498Z,29.62
2022-08-03T13:52:24.374Z,29.58
2022-08-03T13:55:27.750Z,29.55
2022-08-03T13:58:31.134Z,29.53
2022-08-03T14:01:54.270Z,29.49
2022-08-03T14:04:57.148Z,29.44
2022-08-03T14:08:04.397Z,29.38
2022-08-03T14:11:08.250Z,29.34
2022-08-03T14:14:11.948Z,29.32
2022-08-03T14:17:18.414Z,29.30
2022-08-03T14:20:37.150Z,29.26
2022-08-03T14:23:42.729Z,29.19
2022-08-03T14:26:47.877Z,29.12
2022-08-03T14:29:50.851Z,29.06
2022-08-03T14:32:56.823Z,29.01
2022-08-03T14:36:03.529Z,28.96
2022-08-03T14:39:20.605Z,28.86
2022-08-03T14:42:23.805Z,28.64
2022-08-03T14:45:26.790Z,28.54
2022-08-03T14:50:32.848Z,28.48
2022-08-03T14:51:53.708Z,28.44
2022-08-03T14:54:57.619Z,28.38
2022-08-03T14:58:05.541Z,28.32
2022-08-03T15:02:04.828Z,28.23
2022-08-03T15:04:46.068Z,28.07
2022-08-03T15:07:48.949Z,27.91
2022-08-03T15:10:52.375Z,27.74
2022-08-03T15:13:55.226Z,27.63
2022-08-03T15:16:58.308Z,27.50
2022-08-03T15:20:26.551Z,27.35
2022-08-03T15:23:26.514Z,27.19
2022-08-03T15:26:35.372Z,27.04
2022-08-03T15:30:09.363Z,26.95
2022-08-03T15:33:05.876Z,26.86
2022-08-03T15:36:08.852Z,26.79
2022-08-03T15:39:11.974Z,26.72
2022-08-03T15:42:14.855Z,26.65
2022-08-03T15:45:17.962Z,26.56
2022-08-03T15:48:26.539Z,26.51
2022-08-03T15:51:29.866Z,26.45
2022-08-03T15:54:32.861Z,26.39
2022-08-03T15:59:04.736Z,26.32
2022-08-03T16:01:00.779Z,26.25
2022-08-03T16:04:03.779Z,26.19
2022-08-03T16:07:07.584Z,26.14
2022-08-03T16:10:17.820Z,26.10
2022-08-03T16:13:20.749Z,26.05
2022-08-03T16:16:23.683Z,26.03
2022-08-03T16:19:26.636Z,26.00
2022-08-03T16:22:29.516Z,25.97
2022-08-03T16:25:33.193Z,25.94
2022-08-03T16:28:38.171Z,25.92
2022-08-03T16:31:41.045Z,25.89
2022-08-03T16:34:54.413Z,25.87
2022-08-03T16:37:57.733Z,25.85
2022-08-03T16:41:00.673Z,25.83
2022-08-03T16:44:08.084Z,25.79
2022-08-03T16:47:21.954Z,25.78
2022-08-03T16:50:25.583Z,25.73
2022-08-03T16:53:33.685Z,25.70
2022-08-03T16:56:51.760Z,25.67
2022-08-03T16:59:54.690Z,25.64
2022-08-03T17:03:04.325Z,25.61
2022-08-03T17:06:16.852Z,25.59
2022-08-03T17:09:24.768Z,25.56
2022-08-03T17:12:27.874Z,25.55
2022-08-03T17:15:45.627Z,25.52
2022-08-03T17:18:58.502Z,25.49
2022-08-03T17:22:18.575Z,25.45
2022-08-03T17:26:01.495Z,25.42
2022-08-03T17:28:57.246Z,25.37
2022-08-03T17:32:09.756Z,25.33
2022-08-03T17:35:14.913Z,25.28
2022-08-03T17:38:22.416Z,25.24
2022-08-03T17:41:26.500Z,25.20
2022-08-03T17:44:41.265Z,25.16
2022-08-03T17:47:57.318Z,25.11
2022-08-03T17:51:06.915Z,25.05
2022-08-03T17:54:18.107Z,24.99
2022-08-03T17:58:02.583Z,24.95
2022-08-03T18:02:00.101Z,24.89
2022-08-03T18:05:16.009Z,24.81
2022-08-03T18:08:29.895Z,24.74
2022-08-03T18:11:38.846Z,24.68
2022-08-03T18:15:00.692Z,24.62
2022-08-03T18:18:10.809Z,24.56
2022-08-03T18:21:16.764Z,24.47
2022-08-03T18:24:21.882Z,24.41
2022-08-03T18:27:45.886Z,24.36
2022-08-03T18:30:53.996Z,24.30
2022-08-03T18:34:18.020Z,24.23
2022-08-03T18:37:25.861Z,24.15
2022-08-03T18:40:30.056Z,24.09
2022-08-03T18:43:46.276Z,24.03
2022-08-03T18:47:15.975Z,23.97
2022-08-03T18:50:53.568Z,23.91
2022-08-03T18:54:07.386Z,23.86
2022-08-03T18:57:20.862Z,23.80
2022-08-03T19:00:54.239Z,23.75
2022-08-03T19:04:08.560Z,23.72
2022-08-03T19:07:18.050Z,23.68
2022-08-03T19:10:31.100Z,23.63
2022-08-03T19:13:50.081Z,23.58
2022-08-03T19:17:04.793Z,23.52
2022-08-03T19:20:10.227Z,23.47
2022-08-03T19:23:14.332Z,23.42
2022-08-03T19:26:30.310Z,23.38
2022-08-03T19:29:59.750Z,23.34
2022-08-03T19:33:21.058Z,23.29
2022-08-03T19:36:29.201Z,23.24
2022-08-03T19:39:33.619Z,23.20
2022-08-03T19:42:46.432Z,23.15
2022-08-03T19:46:04.486Z,23.12
2022-08-03T19:49:15.169Z,23.09
2022-08-03T19:52:24.365Z,23.08
2022-08-03T19:55:37.526Z,23.06
2022-08-03T19:58:42.933Z,23.03
2022-08-03T20:01:50.759Z,23.00
2022-08-03T20:04:56.851Z,22.94
2022-08-03T20:08:06.530Z,22.90
2022-08-03T20:11:12.941Z,22.86
2022-08-03T20:14:20.703Z,22.82
2022-08-03T20:17:57.067Z,22.78
2022-08-03T20:20:54.254Z,22.74
2022-08-03T20:24:03.341Z,22.72
2022-08-03T20:27:30.026Z,22.67
2022-08-03T20:30:34.348Z,22.64
2022-08-03T20:33:46.739Z,22.61
2022-08-03T20:36:52.331Z,22.59
2022-08-03T20:39:55.302Z,22.55
2022-08-03T20:43:01.574Z,22.51
2022-08-03T20:46:33.772Z,22.47
2022-08-03T20:49:28.327Z,22.46
2022-08-03T20:52:34.926Z,22.43
2022-08-03T20:56:02.398Z,22.39
2022-08-03T20:59:15.094Z,22.38
2022-08-03T21:02:29.796Z,22.35
2022-08-03T21:05:51.355Z,22.32
2022-08-03T21:09:04.249Z,22.31
2022-08-03T21:12:15.436Z,22.29
2022-08-03T21:16:06.516Z,22.28
2022-08-03T21:18:54.316Z,22.28
2022-08-03T21:21:59.112Z,22.26
2022-08-03T21:25:05.627Z,22.25
2022-08-03T21:28:12.920Z,22.23
2022-08-03T21:31:30.228Z,22.20
2022-08-03T21:34:36.176Z,22.17
2022-08-03T21:37:40.963Z,22.16
2022-08-03T21:40:43.987Z,22.14
2022-08-03T21:43:47.152Z,22.11
2022-08-03T21:46:53.408Z,22.09
2022-08-03T21:50:07.378Z,22.05
2022-08-03T21:53:12.605Z,22.02
2022-08-03T21:56:19.782Z,22.01
2022-08-03T21:59:23.614Z,21.98
2022-08-03T22:02:32.049Z,21.96
2022-08-03T22:05:43.514Z,21.91
2022-08-03T22:08:48.851Z,21.87
2022-08-03T22:11:54.251Z,21.86
2022-08-03T22:15:00.376Z,21.83
2022-08-03T22:18:05.178Z,21.81
2022-08-03T22:21:11.632Z,21.78
2022-08-03T22:24:18.297Z,21.77
2022-08-03T22:27:31.018Z,21.76
2022-08-03T22:30:34.653Z,21.74
2022-08-03T22:33:38.530Z,21.72
2022-08-03T22:36:41.942Z,21.71
2022-08-03T22:39:45.976Z,21.69
2022-08-03T22:42:52.589Z,21.69
2022-08-03T22:46:09.023Z,21.68
2022-08-03T22:49:16.432Z,21.67
2022-08-03T22:52:20.334Z,21.65
2022-08-03T22:55:24.532Z,21.63
2022-08-03T22:58:27.715Z,21.63
2022-08-03T23:01:37.187Z,21.62
2022-08-03T23:04:41.285Z,21.61
2022-08-03T23:07:45.560Z,21.59
2022-08-03T23:10:50.152Z,21.58
2022-08-03T23:13:56.667Z,21.57
2022-08-03T23:17:03.813Z,21.56
2022-08-03T23:20:09.765Z,21.56
2022-08-03T23:23:12.820Z,21.55
2022-08-03T23:26:17.455Z,21.54
2022-08-03T23:29:21.774Z,21.53
2022-08-03T23:32:30.055Z,21.54
2022-08-03T23:36:28.327Z,21.52
2022-08-03T23:39:17.083Z,21.52
2022-08-03T23:42:21.425Z,21.51
2022-08-03T23:45:27.690Z,21.50
2022-08-03T23:48:30.865Z,21.49
2022-08-03T23:51:50.217Z,21.49
2022-08-03T23:55:04.044Z,21.47
2022-08-03T23:58:16.262Z,21.46
